Time;durP1;ratioP1;P1;durP2;ratioP2;P2;SDS_P1;SDS_P2;PMS_P1;PMS_P2;Temp;Humidity;BMP_temperature;BMP_pressure;BME280_temperature;BME280_humidity;BME280_pressure;Samples;Min_cycle;Max_cycle;Signal;HPM_P1;HPM_P2
2023/01/28 00:01:52;;;;;;;13.73;8.87;;;;;3.60;102313.00;;;;10082037;29;20613;-80
2023/01/28 00:06:54;;;;;;;16.27;10.17;;;;;3.60;102302.00;;;;10081253;29;20590;-80
2023/01/28 00:11:57;;;;;;;12.60;8.27;;;;;3.50;102294.00;;;;10120813;29;20700;-80
2023/01/28 00:17:07;;;;;;;14.53;9.70;;;;;3.50;102300.00;;;;10104208;29;20200;-81
2023/01/28 00:22:09;;;;;;;13.07;8.17;;;;;3.50;102293.00;;;;10081123;29;20223;-79
2023/01/28 00:27:11;;;;;;;14.77;8.83;;;;;3.50;102293.00;;;;10110921;29;20423;-79
2023/01/28 00:32:13;;;;;;;13.07;8.10;;;;;3.50;102295.00;;;;10081921;29;20283;-80
2023/01/28 00:37:15;;;;;;;14.03;8.47;;;;;3.50;102302.00;;;;10086958;29;20207;-80
2023/01/28 00:42:17;;;;;;;13.37;8.00;;;;;3.40;102301.00;;;;10102679;29;20227;-80
2023/01/28 00:47:20;;;;;;;13.07;8.07;;;;;3.40;102294.00;;;;10118733;29;20203;-81
2023/01/28 00:52:22;;;;;;;13.07;8.03;;;;;3.40;102310.00;;;;10118828;29;20227;-80
2023/01/28 00:57:24;;;;;;;12.03;7.63;;;;;3.40;102304.00;;;;10097177;29;20212;-80
2023/01/28 01:02:26;;;;;;;11.40;7.20;;;;;3.40;102309.00;;;;10086932;29;20216;-80
2023/01/28 01:07:42;;;;;;;9.63;6.27;;;;;3.40;102301.00;;;;10103395;29;20725;-80
2023/01/28 01:12:46;;;;;;;11.00;6.87;;;;;3.40;102309.00;;;;10101680;29;20223;-80
2023/01/28 01:17:49;;;;;;;10.47;6.47;;;;;3.40;102313.00;;;;10111954;29;20339;-80
2023/01/28 01:22:51;;;;;;;9.97;6.57;;;;;3.40;102315.00;;;;10118121;29;20330;-81
2023/01/28 01:27:53;;;;;;;12.17;7.87;;;;;3.30;102328.00;;;;10103080;29;20272;-80
2023/01/28 01:32:55;;;;;;;12.80;8.07;;;;;3.30;102324.00;;;;10086411;29;20295;-80
2023/01/28 01:37:57;;;;;;;12.67;7.53;;;;;3.30;102330.00;;;;10099295;29;20212;-80
2023/01/28 01:42:59;;;;;;;13.87;8.07;;;;;3.30;102339.00;;;;10099280;29;20218;-81
2023/01/28 01:48:04;;;;;;;13.80;8.37;;;;;3.30;102319.00;;;;10116207;29;20206;-80
2023/01/28 01:53:15;;;;;;;14.30;8.13;;;;;3.30;102328.00;;;;10115739;29;20687;-80
2023/01/28 01:58:22;;;;;;;15.93;9.63;;;;;3.30;102325.00;;;;10100456;29;20218;-79
2023/01/28 02:03:40;;;;;;;14.47;8.33;;;;;3.30;102325.00;;;;10093009;29;20271;-80
2023/01/28 02:08:44;;;;;;;16.13;9.53;;;;;3.20;102322.00;;;;10097438;29;20226;-79
2023/01/28 02:13:50;;;;;;;17.77;9.23;;;;;3.20;102331.00;;;;10132554;29;20231;-80
2023/01/28 02:18:51;;;;;;;13.77;8.20;;;;;3.20;102330.00;;;;10104182;29;20208;-80
2023/01/28 02:24:14;;;;;;;13.10;7.70;;;;;3.20;102321.00;;;;10114458;29;20571;-80
2023/01/28 02:29:30;;;;;;;14.10;8.60;;;;;3.20;102319.00;;;;10084283;29;20211;-79
2023/01/28 02:34:49;;;;;;;15.73;8.80;;;;;3.20;102326.00;;;;10128525;29;20579;-80
2023/01/28 02:39:58;;;;;;;17.03;8.70;;;;;3.20;102325.00;;;;10099145;29;20219;-80
2023/01/28 02:45:00;;;;;;;14.80;8.33;;;;;3.20;102322.00;;;;10087771;29;20306;-80
2023/01/28 02:50:14;;;;;;;13.47;7.87;;;;;3.20;102326.00;;;;10100099;29;20283;-80
2023/01/28 02:55:25;;;;;;;14.07;8.03;;;;;3.20;102323.00;;;;10098688;29;20235;-80
2023/01/28 03:01:04;;;;;;;13.47;8.27;;;;;3.10;102321.00;;;;10115657;29;20583;-79
2023/01/28 03:06:10;;;;;;;13.33;8.27;;;;;3.10;102317.00;;;;10112536;29;20250;-80
2023/01/28 03:38:22;;;;;;;14.13;7.80;;;;;3.00;102363.00;;;;10108161;29;20658;-80
2023/01/28 03:43:26;;;;;;;12.83;7.70;;;;;3.00;102377.00;;;;10081255;29;20211;-80
2023/01/28 03:48:29;;;;;;;17.87;8.20;;;;;3.00;102370.00;;;;10112171;29;20215;-80
2023/01/28 03:53:33;;;;;;;15.83;8.47;;;;;3.00;102370.00;;;;10080514;29;20691;-79
2023/01/28 03:58:55;;;;;;;13.60;7.60;;;;;2.90;102361.00;;;;10112565;29;20203;-80
2023/01/28 04:03:58;;;;;;;12.27;6.63;;;;;2.90;102365.00;;;;10111628;29;20214;-80
2023/01/28 04:09:01;;;;;;;14.40;8.03;;;;;2.90;102373.00;;;;10096484;29;20250;-80
2023/01/28 04:14:14;;;;;;;13.63;7.57;;;;;2.90;102367.00;;;;10062838;29;20232;-80
2023/01/28 04:19:36;;;;;;;13.97;8.00;;;;;2.90;102368.00;;;;10111854;29;20207;-81
2023/01/28 04:24:39;;;;;;;13.27;8.13;;;;;2.90;102381.00;;;;10096017;29;20215;-80
2023/01/28 04:29:41;;;;;;;12.23;7.37;;;;;2.90;102381.00;;;;10110808;29;20291;-80
2023/01/28 04:35:10;;;;;;;12.20;7.70;;;;;2.90;102383.00;;;;10094898;29;20238;-80
2023/01/28 04:40:32;;;;;;;14.27;7.80;;;;;2.80;102373.00;;;;10103460;29;20242;-80
2023/01/28 04:45:44;;;;;;;15.67;8.70;;;;;2.80;102376.00;;;;10085796;29;20222;-80
2023/01/28 04:51:08;;;;;;;14.80;7.60;;;;;2.80;102385.00;;;;10090952;29;20199;-80
2023/01/28 04:56:20;;;;;;;14.13;8.13;;;;;2.80;102384.00;;;;10117849;29;20306;-80
2023/01/28 05:01:23;;;;;;;13.70;8.03;;;;;2.80;102376.00;;;;10072828;29;20238;-81
2023/01/28 05:06:26;;;;;;;14.37;8.20;;;;;2.80;102388.00;;;;10087918;29;20215;-81
2023/01/28 05:11:31;;;;;;;15.00;9.27;;;;;2.70;102385.00;;;;10087723;29;20262;-81
2023/01/28 05:16:37;;;;;;;13.97;8.27;;;;;2.70;102386.00;;;;10102373;29;20250;-80
2023/01/28 05:21:40;;;;;;;13.87;7.87;;;;;2.70;102387.00;;;;10102894;29;20195;-81
2023/01/28 05:26:51;;;;;;;14.40;8.63;;;;;2.70;102390.00;;;;10117494;29;20278;-80
2023/01/28 05:31:56;;;;;;;14.10;8.47;;;;;2.70;102389.00;;;;10066725;29;20203;-80
2023/01/28 05:36:58;;;;;;;14.57;8.77;;;;;2.70;102392.00;;;;10101591;29;20247;-80
2023/01/28 05:42:05;;;;;;;13.07;7.50;;;;;2.70;102396.00;;;;10084524;29;20290;-80
2023/01/28 05:47:12;;;;;;;15.60;8.83;;;;;2.60;102393.00;;;;10103839;29;20211;-80
2023/01/28 05:52:25;;;;;;;13.77;8.47;;;;;2.60;102386.00;;;;10100217;29;20203;-80
2023/01/28 05:57:27;;;;;;;15.13;8.57;;;;;2.60;102390.00;;;;10091386;29;20223;-80
2023/01/28 06:02:29;;;;;;;17.07;9.67;;;;;2.60;102398.00;;;;10098634;29;20679;-80
2023/01/28 06:07:33;;;;;;;13.60;8.20;;;;;2.50;102406.00;;;;10084471;29;20219;-79
2023/01/28 06:12:38;;;;;;;13.83;8.43;;;;;2.50;102408.00;;;;10097719;29;20235;-80
2023/01/28 06:17:59;;;;;;;15.13;8.47;;;;;2.50;102417.00;;;;10099014;29;20690;-80
2023/01/28 06:23:06;;;;;;;14.50;8.27;;;;;2.50;102411.00;;;;10095973;29;20218;-80
2023/01/28 06:28:08;;;;;;;14.80;8.70;;;;;2.40;102416.00;;;;10097301;29;20211;-80
2023/01/28 06:33:10;;;;;;;12.30;7.43;;;;;2.40;102426.00;;;;10108416;29;20271;-80
2023/01/28 06:38:15;;;;;;;11.17;7.00;;;;;2.40;102424.00;;;;10082066;29;20208;-80
2023/01/28 06:43:17;;;;;;;13.47;7.87;;;;;2.40;102441.00;;;;10068285;29;20206;-80
2023/01/28 06:48:22;;;;;;;12.80;7.60;;;;;2.30;102427.00;;;;10095872;29;20211;-81
2023/01/28 06:53:24;;;;;;;12.00;6.93;;;;;2.30;102435.00;;;;10087336;29;20220;-79
2023/01/28 06:58:26;;;;;;;11.73;7.47;;;;;2.30;102438.00;;;;10093795;29;20207;-79
2023/01/28 07:03:28;;;;;;;12.57;6.67;;;;;2.30;102434.00;;;;10096544;29;20778;-80
2023/01/28 07:08:30;;;;;;;12.47;7.53;;;;;2.30;102433.00;;;;10089837;29;20219;-80
2023/01/28 07:13:32;;;;;;;9.50;6.67;;;;;2.30;102435.00;;;;10083684;29;20227;-81
2023/01/28 07:18:34;;;;;;;13.53;7.27;;;;;2.30;102439.00;;;;10091759;29;20215;-80
2023/01/28 07:23:38;;;;;;;15.13;8.57;;;;;2.30;102438.00;;;;10082354;29;20679;-81
2023/01/28 07:28:40;;;;;;;17.60;9.07;;;;;2.30;102442.00;;;;10091274;29;20255;-82
2023/01/28 07:33:45;;;;;;;14.60;8.47;;;;;2.30;102440.00;;;;10077351;29;20224;-81
2023/01/28 07:38:47;;;;;;;14.63;8.57;;;;;2.30;102444.00;;;;10097701;29;20536;-80
2023/01/28 07:43:49;;;;;;;14.40;8.47;;;;;2.30;102450.00;;;;10082222;29;20269;-80
2023/01/28 07:48:53;;;;;;;11.97;7.17;;;;;2.30;102457.00;;;;10095211;29;20210;-80
2023/01/28 07:53:56;;;;;;;15.63;8.60;;;;;2.30;102461.00;;;;10086926;29;20215;-81
2023/01/28 07:58:58;;;;;;;21.33;8.67;;;;;2.30;102457.00;;;;10090192;29;20267;-79
2023/01/28 08:04:02;;;;;;;15.57;8.97;;;;;2.30;102463.00;;;;10093610;29;20199;-80
2023/01/28 08:09:07;;;;;;;16.27;9.40;;;;;2.30;102462.00;;;;10098796;29;20231;-80
2023/01/28 08:14:09;;;;;;;14.37;8.70;;;;;2.30;102464.00;;;;10078077;29;20239;-80
2023/01/28 08:19:11;;;;;;;14.30;8.27;;;;;2.40;102476.00;;;;10097480;29;20200;-81
2023/01/28 08:24:13;;;;;;;14.93;8.27;;;;;2.40;102484.00;;;;10100489;29;20215;-80
2023/01/28 08:29:16;;;;;;;14.20;8.47;;;;;2.40;102486.00;;;;10118082;29;20227;-80
2023/01/28 08:34:18;;;;;;;16.57;10.20;;;;;2.50;102484.00;;;;10093601;29;20228;-80
2023/01/28 08:39:19;;;;;;;15.07;8.70;;;;;2.50;102500.00;;;;10067419;29;20211;-79
2023/01/28 08:44:21;;;;;;;14.10;8.97;;;;;2.50;102512.00;;;;10063097;29;20255;-81
2023/01/28 08:49:23;;;;;;;15.70;8.67;;;;;2.60;102523.00;;;;10103687;29;20215;-81
2023/01/28 08:54:25;;;;;;;15.57;8.97;;;;;2.60;102523.00;;;;10061177;29;20341;-80
2023/01/28 08:59:27;;;;;;;17.27;9.40;;;;;2.60;102527.00;;;;10100885;29;20619;-80
2023/01/28 09:04:29;;;;;;;14.23;8.63;;;;;2.60;102537.00;;;;10083836;29;20570;-80
2023/01/28 09:09:31;;;;;;;16.80;9.50;;;;;2.60;102535.00;;;;10085527;29;20227;-80
2023/01/28 09:14:33;;;;;;;14.10;8.73;;;;;2.70;102536.00;;;;10100399;29;20227;-81
2023/01/28 09:19:35;;;;;;;16.57;9.43;;;;;2.80;102524.00;;;;10119217;29;20836;-80
2023/01/28 09:24:37;;;;;;;15.47;8.93;;;;;2.80;102531.00;;;;10099507;29;20793;-81
2023/01/28 09:29:40;;;;;;;14.23;8.70;;;;;2.90;102546.00;;;;10098956;29;20604;-80
2023/01/28 09:34:43;;;;;;;16.70;9.60;;;;;2.90;102540.00;;;;10099532;29;20228;-80
2023/01/28 09:39:45;;;;;;;14.07;7.97;;;;;2.90;102537.00;;;;10115311;29;20234;-80
2023/01/28 09:45:00;;;;;;;13.97;8.60;;;;;3.00;102538.00;;;;10074397;29;20397;-81
2023/01/28 09:50:07;;;;;;;17.40;10.33;;;;;3.10;102542.00;;;;10115196;29;20204;-82
2023/01/28 09:55:33;;;;;;;14.87;9.17;;;;;3.20;102548.00;;;;10093203;29;20258;-80
2023/01/28 10:01:01;;;;;;;18.03;11.43;;;;;3.30;102569.00;;;;10092595;29;20210;-81
2023/01/28 10:06:13;;;;;;;16.47;10.43;;;;;3.30;102565.00;;;;10078781;29;20220;-82
2023/01/28 10:11:44;;;;;;;15.73;8.80;;;;;3.40;102561.00;;;;10079020;29;20215;-82
2023/01/28 10:16:58;;;;;;;15.40;8.63;;;;;3.50;102565.00;;;;10103441;29;20231;-81
2023/01/28 10:22:05;;;;;;;14.00;8.63;;;;;3.60;102573.00;;;;10095784;29;20204;-81
2023/01/28 10:27:21;;;;;;;12.67;7.60;;;;;3.70;102562.00;;;;10082623;29;20223;-81
2023/01/28 10:32:37;;;;;;;16.50;8.83;;;;;3.80;102564.00;;;;10106642;29;20203;-81
2023/01/28 10:37:39;;;;;;;14.70;9.00;;;;;3.70;102567.00;;;;10098785;29;20325;-81
2023/01/28 10:42:43;;;;;;;11.60;7.43;;;;;3.70;102579.00;;;;10113680;29;20211;-81
2023/01/28 10:47:53;;;;;;;13.70;8.37;;;;;3.80;102579.00;;;;10073923;29;20208;-81
2023/01/28 10:52:58;;;;;;;11.47;8.17;;;;;4.00;102581.00;;;;10083422;29;20212;-81
2023/01/28 10:58:02;;;;;;;14.67;8.27;;;;;4.10;102557.00;;;;10081711;29;20226;-81
2023/01/28 11:03:04;;;;;;;13.13;7.70;;;;;4.20;102580.00;;;;10085014;29;20237;-81
2023/01/28 11:08:15;;;;;;;12.57;7.97;;;;;4.30;102574.00;;;;10067470;29;20770;-81
2023/01/28 11:13:28;;;;;;;14.50;9.40;;;;;4.20;102583.00;;;;10112444;29;20206;-81
2023/01/28 11:18:34;;;;;;;14.97;8.97;;;;;4.30;102563.00;;;;10127429;29;20211;-81
2023/01/28 11:23:48;;;;;;;15.53;9.30;;;;;4.20;102570.00;;;;10102530;29;20802;-81
2023/01/28 11:28:51;;;;;;;13.37;8.00;;;;;4.10;102566.00;;;;10088826;29;20243;-81
2023/01/28 11:33:56;;;;;;;13.83;8.53;;;;;4.10;102572.00;;;;10088584;29;20223;-81
2023/01/28 11:39:01;;;;;;;12.93;8.27;;;;;4.00;102571.00;;;;10119526;29;20215;-80
2023/01/28 11:44:24;;;;;;;15.63;9.57;;;;;4.00;102563.00;;;;10101642;29;20207;-81
2023/01/28 11:49:45;;;;;;;14.90;8.93;;;;;3.90;102560.00;;;;10081452;29;20211;-82
2023/01/28 11:55:06;;;;;;;13.27;8.30;;;;;3.90;102549.00;;;;10094175;29;20229;-83
2023/01/28 12:00:31;;;;;;;14.07;8.13;;;;;4.00;102553.00;;;;10060862;29;20200;-80
2023/01/28 12:05:48;;;;;;;13.73;9.23;;;;;4.20;102534.00;;;;10091953;29;20563;-80
2023/01/28 12:11:04;;;;;;;15.20;10.00;;;;;4.20;102518.00;;;;10080212;29;20207;-80
2023/01/28 12:16:46;;;;;;;14.17;8.90;;;;;4.60;102499.00;;;;10089640;29;20606;-81
2023/01/28 12:22:13;;;;;;;14.23;8.83;;;;;4.70;102476.00;;;;10122456;29;20223;-80
2023/01/28 12:27:49;;;;;;;16.30;9.73;;;;;4.90;102477.00;;;;10068999;29;20302;-79
2023/01/28 12:33:18;;;;;;;17.83;10.07;;;;;5.70;102461.00;;;;10096756;29;20286;-81
2023/01/28 12:38:23;;;;;;;15.30;9.40;;;;;5.90;102433.00;;;;10077229;29;20298;-79
2023/01/28 12:44:00;;;;;;;13.97;8.87;;;;;6.20;102415.00;;;;10109228;29;20250;-80
2023/01/28 12:49:09;;;;;;;16.43;11.00;;;;;6.40;102428.00;;;;10106931;29;20219;-81
2023/01/28 12:54:20;;;;;;;18.13;11.93;;;;;6.40;102449.00;;;;10104822;29;20219;-81
2023/01/28 12:59:27;;;;;;;16.97;11.60;;;;;6.60;102438.00;;;;10109091;29;20748;-81
2023/01/28 13:05:02;;;;;;;16.60;11.13;;;;;6.70;102442.00;;;;10091373;29;20250;-81
2023/01/28 13:10:23;;;;;;;16.83;11.07;;;;;7.00;102457.00;;;;10092116;29;20229;-81
2023/01/28 13:15:25;;;;;;;14.87;10.10;;;;;7.20;102463.00;;;;10105725;29;20220;-81
2023/01/28 13:20:48;;;;;;;16.50;11.13;;;;;7.30;102467.00;;;;10103287;29;20295;-81
2023/01/28 13:25:54;;;;;;;16.87;10.87;;;;;7.20;102479.00;;;;10099391;29;20203;-81
2023/01/28 13:31:08;;;;;;;18.00;11.70;;;;;7.00;102485.00;;;;10100909;29;20207;-82
2023/01/28 13:36:22;;;;;;;18.07;11.60;;;;;6.80;102492.00;;;;10078719;29;20255;-81
2023/01/28 13:41:41;;;;;;;16.77;11.27;;;;;6.30;102490.00;;;;10126918;29;20337;-81
2023/01/28 13:46:43;;;;;;;19.07;11.50;;;;;6.60;102485.00;;;;10082821;29;20207;-81
2023/01/28 13:52:08;;;;;;;15.97;9.93;;;;;6.40;102495.00;;;;10076830;29;20563;-81
2023/01/28 13:57:25;;;;;;;17.57;11.20;;;;;6.00;102489.00;;;;10111065;29;20219;-81
2023/01/28 14:02:36;;;;;;;14.73;10.37;;;;;5.90;102489.00;;;;10077068;29;20259;-81
2023/01/28 14:08:16;;;;;;;20.60;11.70;;;;;5.90;102482.00;;;;10110170;29;20231;-82
2023/01/28 14:13:57;;;;;;;15.67;9.30;;;;;5.60;102464.00;;;;10091122;29;20212;-80
2023/01/28 14:19:01;;;;;;;16.83;10.53;;;;;5.60;102461.00;;;;10092403;29;20230;-81
2023/01/28 14:24:04;;;;;;;16.20;9.73;;;;;5.60;102469.00;;;;10090584;29;20215;-81
2023/01/28 14:29:25;;;;;;;16.20;9.53;;;;;5.50;102462.00;;;;10112693;29;20231;-81
2023/01/28 14:34:33;;;;;;;15.93;9.13;;;;;5.30;102460.00;;;;10066045;29;20223;-81
2023/01/28 14:39:45;;;;;;;13.80;7.73;;;;;5.10;102434.00;;;;10096087;29;20208;-82
2023/01/28 14:44:58;;;;;;;11.53;7.30;;;;;6.00;102440.00;;;;10106511;29;20279;-81
2023/01/28 14:50:06;;;;;;;14.80;8.33;;;;;5.30;102431.00;;;;10094235;29;20208;-81
2023/01/28 14:55:19;;;;;;;13.87;8.20;;;;;5.10;102457.00;;;;10092409;29;20218;-81
2023/01/28 15:00:27;;;;;;;13.17;8.40;;;;;4.80;102471.00;;;;10095573;29;20204;-81
2023/01/28 15:05:30;;;;;;;14.53;8.20;;;;;4.60;102453.00;;;;10116285;29;20495;-81
2023/01/28 15:10:36;;;;;;;15.90;8.07;;;;;4.50;102457.00;;;;10076258;29;20226;-81
2023/01/28 15:15:40;;;;;;;15.00;8.57;;;;;4.50;102477.00;;;;10083597;29;20259;-81
2023/01/28 15:20:55;;;;;;;15.53;8.67;;;;;4.30;102484.00;;;;10104172;29;20208;-80
2023/01/28 15:25:57;;;;;;;14.57;8.50;;;;;4.10;102497.00;;;;10109620;29;20667;-81
2023/01/28 15:31:00;;;;;;;14.13;8.40;;;;;3.90;102484.00;;;;10092935;29;20227;-81
2023/01/28 15:36:03;;;;;;;13.47;8.20;;;;;3.80;102482.00;;;;10072452;29;20228;-81
2023/01/28 15:41:05;;;;;;;13.83;8.47;;;;;3.60;102481.00;;;;10060082;29;20279;-81
2023/01/28 15:46:14;;;;;;;14.10;7.77;;;;;3.40;102465.00;;;;10103570;29;20199;-81
2023/01/28 15:51:23;;;;;;;14.70;8.27;;;;;3.10;102463.00;;;;10110229;29;20223;-82
2023/01/28 15:56:27;;;;;;;13.20;7.30;;;;;2.90;102469.00;;;;10080865;29;20227;-81
2023/01/28 16:01:29;;;;;;;13.03;7.80;;;;;2.80;102473.00;;;;10092471;29;20677;-81
2023/01/28 16:06:37;;;;;;;13.10;7.80;;;;;2.70;102478.00;;;;10095094;29;20903;-80
2023/01/28 16:11:45;;;;;;;12.83;7.47;;;;;2.70;102499.00;;;;10110956;29;20235;-81
2023/01/28 16:16:48;;;;;;;15.47;8.30;;;;;2.70;102520.00;;;;10096094;29;20263;-81
2023/01/28 16:21:50;;;;;;;15.20;8.63;;;;;2.70;102522.00;;;;10096324;29;20214;-81
2023/01/28 16:27:01;;;;;;;15.17;9.17;;;;;2.70;102526.00;;;;10110491;29;20206;-81
2023/01/28 16:32:03;;;;;;;14.70;8.10;;;;;2.70;102546.00;;;;10109884;29;20231;-81
2023/01/28 16:37:08;;;;;;;14.73;8.03;;;;;2.70;102554.00;;;;10050654;29;20247;-82
2023/01/28 16:42:10;;;;;;;15.80;8.63;;;;;2.70;102551.00;;;;10094498;29;20218;-81
2023/01/28 16:47:12;;;;;;;18.07;8.93;;;;;2.70;102549.00;;;;10101738;29;20227;-81
2023/01/28 16:52:14;;;;;;;15.03;8.67;;;;;2.60;102527.00;;;;10131074;29;20299;-81
2023/01/28 16:57:19;;;;;;;16.87;9.07;;;;;2.50;102520.00;;;;10079136;29;20338;-81
2023/01/28 17:02:21;;;;;;;21.60;8.47;;;;;2.40;102518.00;;;;10118834;29;20247;-81
2023/01/28 17:07:23;;;;;;;15.03;8.00;;;;;2.20;102521.00;;;;10118954;29;20467;-81
2023/01/28 17:12:25;;;;;;;15.30;8.67;;;;;2.20;102538.00;;;;10116533;29;20207;-82
2023/01/28 17:17:27;;;;;;;15.33;8.23;;;;;2.10;102523.00;;;;10123809;29;20736;-82
2023/01/28 17:22:29;;;;;;;29.03;10.53;;;;;2.00;102510.00;;;;10086704;29;20195;-81
2023/01/28 17:27:31;;;;;;;20.90;10.47;;;;;1.80;102536.00;;;;10084546;29;20211;-81
2023/01/28 17:32:33;;;;;;;22.03;11.30;;;;;1.50;102540.00;;;;10100659;29;20251;-81
2023/01/28 17:37:37;;;;;;;17.50;8.73;;;;;1.20;102522.00;;;;10101257;29;20228;-81
2023/01/28 17:42:39;;;;;;;21.90;10.63;;;;;0.90;102529.00;;;;10117655;29;20982;-81
2023/01/28 17:47:41;;;;;;;18.87;10.43;;;;;0.80;102528.00;;;;10110702;29;20231;-82
2023/01/28 17:52:43;;;;;;;18.60;9.70;;;;;0.60;102520.00;;;;10099096;29;20238;-81
2023/01/28 17:57:45;;;;;;;16.57;8.43;;;;;0.40;102529.00;;;;10084882;29;20232;-81
2023/01/28 18:02:49;;;;;;;18.23;9.23;;;;;0.20;102550.00;;;;10101414;29;20708;-81
2023/01/28 18:07:51;;;;;;;18.63;9.20;;;;;0.10;102556.00;;;;10069537;29;20224;-81
2023/01/28 18:12:52;;;;;;;23.57;11.43;;;;;0.00;102548.00;;;;10084038;29;20243;-80
2023/01/28 18:17:54;;;;;;;20.00;10.80;;;;;-0.10;102541.00;;;;10089661;29;20241;-81
2023/01/28 18:22:56;;;;;;;19.67;11.60;;;;;-0.30;102530.00;;;;10069639;29;20215;-81
2023/01/28 18:27:58;;;;;;;23.13;10.67;;;;;-0.40;102540.00;;;;10101059;29;20200;-81
2023/01/28 18:33:00;;;;;;;47.80;18.47;;;;;-0.50;102549.00;;;;10069793;29;20216;-81
2023/01/28 18:38:02;;;;;;;34.07;15.30;;;;;-0.60;102548.00;;;;10114989;29;20231;-81
2023/01/28 18:43:04;;;;;;;24.77;12.53;;;;;-0.70;102549.00;;;;10103803;29;20308;-81
2023/01/28 18:48:06;;;;;;;27.53;12.80;;;;;-0.80;102580.00;;;;10068461;29;20216;-81
2023/01/28 18:53:08;;;;;;;26.87;14.47;;;;;-0.80;102581.00;;;;10076982;29;20279;-81
2023/01/28 18:58:10;;;;;;;29.87;15.07;;;;;-0.80;102589.00;;;;10073147;29;20558;-81
2023/01/28 19:03:13;;;;;;;35.13;16.60;;;;;-0.90;102590.00;;;;10113973;29;20195;-82
2023/01/28 19:08:15;;;;;;;28.10;15.07;;;;;-1.00;102583.00;;;;10083746;29;20245;-81
2023/01/28 19:13:16;;;;;;;35.00;15.73;;;;;-1.10;102583.00;;;;10129064;29;20206;-81
2023/01/28 19:18:18;;;;;;;27.67;14.43;;;;;-1.20;102595.00;;;;10104830;29;20674;-81
2023/01/28 19:23:21;;;;;;;37.37;18.40;;;;;-1.30;102586.00;;;;10137368;29;20278;-81
2023/01/28 19:28:22;;;;;;;40.53;19.77;;;;;-1.30;102578.00;;;;10084874;29;20263;-81
2023/01/28 19:33:25;;;;;;;38.13;16.83;;;;;-1.40;102580.00;;;;10058664;29;20208;-81
2023/01/28 19:38:27;;;;;;;34.37;17.33;;;;;-1.40;102573.00;;;;10091327;29;20235;-81
2023/01/28 19:43:29;;;;;;;30.77;15.47;;;;;-1.40;102563.00;;;;10075220;29;20537;-81
2023/01/28 19:48:32;;;;;;;25.33;14.10;;;;;-1.50;102562.00;;;;10086640;29;20849;-81
2023/01/28 19:53:34;;;;;;;33.40;14.73;;;;;-1.50;102560.00;;;;10117078;29;20578;-81
2023/01/28 19:58:39;;;;;;;26.60;13.97;;;;;-1.50;102564.00;;;;10100801;29;20919;-80
2023/01/28 20:03:42;;;;;;;23.73;13.47;;;;;-1.50;102563.00;;;;10048341;29;20212;-80
2023/01/28 20:08:44;;;;;;;31.63;16.53;;;;;-1.60;102572.00;;;;10112102;29;20238;-80
2023/01/28 20:13:48;;;;;;;29.90;14.50;;;;;-1.60;102573.00;;;;10071548;29;20574;-80
2023/01/28 20:18:49;;;;;;;28.47;13.43;;;;;-1.60;102573.00;;;;10095992;29;20304;-81
2023/01/28 20:23:53;;;;;;;28.37;14.80;;;;;-1.70;102565.00;;;;10112379;29;20670;-80
2023/01/28 20:28:59;;;;;;;26.00;13.47;;;;;-1.70;102564.00;;;;10088231;29;20207;-81
2023/01/28 20:34:01;;;;;;;29.03;13.47;;;;;-1.70;102555.00;;;;10107510;29;20218;-80
2023/01/28 20:39:03;;;;;;;26.57;12.33;;;;;-1.80;102567.00;;;;10064912;29;20238;-82
2023/01/28 20:44:05;;;;;;;23.00;12.47;;;;;-1.90;102550.00;;;;10099139;29;20206;-80
2023/01/28 20:49:09;;;;;;;26.20;11.77;;;;;-1.90;102550.00;;;;10093192;29;20223;-80
2023/01/28 20:54:12;;;;;;;26.70;11.40;;;;;-1.90;102539.00;;;;10086824;29;20199;-81
2023/01/28 20:59:14;;;;;;;25.00;11.80;;;;;-1.90;102541.00;;;;10080853;29;20232;-80
2023/01/28 21:04:16;;;;;;;25.47;13.20;;;;;-1.80;102540.00;;;;10082921;29;20203;-80
2023/01/28 21:09:18;;;;;;;28.33;14.80;;;;;-1.80;102543.00;;;;10124363;29;20228;-81
2023/01/28 21:14:20;;;;;;;34.00;16.87;;;;;-1.80;102541.00;;;;10107087;29;20210;-81
2023/01/28 21:19:22;;;;;;;30.90;16.90;;;;;-1.80;102534.00;;;;10101957;29;20238;-80
2023/01/28 21:24:24;;;;;;;32.63;15.93;;;;;-1.80;102537.00;;;;10100540;29;20238;-80
2023/01/28 21:29:26;;;;;;;29.73;15.17;;;;;-1.80;102547.00;;;;10085042;29;20219;-80
2023/01/28 21:34:28;;;;;;;53.70;21.47;;;;;-1.90;102549.00;;;;10070592;29;20207;-80
2023/01/28 21:39:30;;;;;;;41.50;19.67;;;;;-1.90;102544.00;;;;10084629;29;20230;-80
2023/01/28 21:44:32;;;;;;;36.53;17.47;;;;;-2.00;102538.00;;;;10093785;29;20299;-80
2023/01/28 21:49:34;;;;;;;39.07;19.37;;;;;-2.00;102536.00;;;;10086568;29;20199;-80
2023/01/28 21:54:36;;;;;;;43.63;20.63;;;;;-2.10;102539.00;;;;10093052;29;20673;-81
2023/01/28 21:59:39;;;;;;;43.47;21.83;;;;;-2.10;102543.00;;;;10102346;29;20786;-80
2023/01/28 22:04:45;;;;;;;46.83;23.50;;;;;-2.20;102533.00;;;;10078553;29;20676;-80
2023/01/28 22:09:47;;;;;;;42.33;20.33;;;;;-2.20;102538.00;;;;10081363;29;20303;-80
2023/01/28 22:14:49;;;;;;;41.73;20.10;;;;;-2.20;102540.00;;;;10102146;29;20207;-81
2023/01/28 22:19:51;;;;;;;36.43;20.97;;;;;-2.30;102550.00;;;;10099957;29;20879;-80
2023/01/28 22:24:53;;;;;;;36.90;18.70;;;;;-2.30;102547.00;;;;10083259;29;20200;-80
2023/01/28 22:29:56;;;;;;;41.30;19.87;;;;;-2.30;102549.00;;;;10114143;29;20214;-80
2023/01/28 22:35:00;;;;;;;43.50;20.90;;;;;-2.40;102550.00;;;;10081731;29;20214;-81
2023/01/28 22:40:02;;;;;;;47.33;19.93;;;;;-2.40;102554.00;;;;10060067;29;20541;-80
2023/01/28 22:45:05;;;;;;;37.57;19.13;;;;;-2.50;102554.00;;;;10080511;29;20223;-80
2023/01/28 22:50:08;;;;;;;44.60;21.30;;;;;-2.50;102553.00;;;;10089420;29;20221;-82
2023/01/28 22:55:10;;;;;;;47.50;21.97;;;;;-2.50;102546.00;;;;10089950;29;20250;-80
2023/01/28 23:00:14;;;;;;;43.90;20.87;;;;;-2.50;102544.00;;;;10082501;29;20230;-80
2023/01/28 23:05:17;;;;;;;40.40;21.93;;;;;-2.40;102536.00;;;;10106637;29;20248;-80
2023/01/28 23:10:19;;;;;;;39.37;20.20;;;;;-2.30;102530.00;;;;10097046;29;20203;-80
2023/01/28 23:26:03;;;;;;;43.23;20.37;;;;;-2.40;102532.00;;;;10111384;29;20787;-81
2023/01/28 23:31:07;;;;;;;36.70;17.87;;;;;-2.40;102523.00;;;;10051816;29;20263;-81
2023/01/28 23:36:09;;;;;;;38.10;17.03;;;;;-2.30;102518.00;;;;10109153;29;20211;-81
2023/01/28 23:41:11;;;;;;;39.07;19.70;;;;;-2.30;102517.00;;;;10091688;29;20203;-81
2023/01/28 23:46:13;;;;;;;42.70;19.00;;;;;-2.40;102505.00;;;;10101583;29;20246;-80
2023/01/28 23:51:15;;;;;;;39.40;18.53;;;;;-2.50;102504.00;;;;10067126;29;20212;-81
2023/01/28 23:56:18;;;;;;;37.83;17.93;;;;;-2.60;102507.00;;;;10081215;29;20226;-80
